Terminal Aerodrome Forecast
Issued by NWS

Home | Current Version | Previous Version | Text Only | Print | Product List | Glossary On
Versions: 1 2 3 4 5 6 7 8 9 10 11 12 13 14 15 16
000
FTAK31 PANC 192337 AAA
TAFACD
TAF AMD
PACD 192337Z 2000/2024 17025G35KT 6SM -RA SCT003 OVC060
      TEMPO 2000/2003 BKN003
     FM200300 20011KT P6SM SCT025
     FM200600 VRB06KT P6SM SCT035
     FM201600 14011KT P6SM BKN035
     FM202100 15015G25KT 6SM -RA OVC015=

USA.gov is the U.S. government's official web portal to all federal, state and local government web resources and services.